createdAt,value
2022-10-24T00:02:12.482Z,9.77
2022-10-24T00:04:42.658Z,10.37
2022-10-24T00:07:11.487Z,8.47
2022-10-24T00:09:40.347Z,8.73
2022-10-24T00:12:10.792Z,7.20
2022-10-24T00:14:39.960Z,9.73
2022-10-24T00:17:08.636Z,10.50
2022-10-24T00:19:37.373Z,12.33
2022-10-24T00:22:06.286Z,14.23
2022-10-24T00:24:34.891Z,11.63
2022-10-24T00:27:03.542Z,8.97
2022-10-24T00:29:33.667Z,11.10
2022-10-24T00:32:02.313Z,11.13
2022-10-24T00:34:31.017Z,10.13
2022-10-24T00:36:59.681Z,10.57
2022-10-24T00:39:28.288Z,8.07
2022-10-24T00:41:59.039Z,14.73
2022-10-24T00:44:31.083Z,9.07
2022-10-24T00:47:06.238Z,10.83
2022-10-24T00:49:46.735Z,9.53
2022-10-24T00:52:19.401Z,9.93
2022-10-24T00:54:49.295Z,10.97
2022-10-24T00:57:25.925Z,11.67
2022-10-24T01:00:01.597Z,11.47
2022-10-24T01:02:31.702Z,9.47
2022-10-24T01:05:01.080Z,9.47
2022-10-24T01:07:51.802Z,9.87
2022-10-24T01:10:39.790Z,16.67
2022-10-24T01:13:23.833Z,10.07
2022-10-24T01:16:04.726Z,10.77
2022-10-24T01:18:44.201Z,7.93
2022-10-24T01:21:30.040Z,10.73
2022-10-24T01:24:33.467Z,12.03
2022-10-24T01:27:41.144Z,7.63
2022-10-24T01:30:14.065Z,11.83
2022-10-24T01:32:55.232Z,11.23
2022-10-24T01:35:37.163Z,9.77
2022-10-24T01:38:17.903Z,12.53
2022-10-24T01:40:54.480Z,8.57
2022-10-24T01:43:29.730Z,8.83
2022-10-24T01:46:05.903Z,8.83
2022-10-24T01:48:41.740Z,7.33
2022-10-24T01:51:14.159Z,9.83
2022-10-24T01:53:45.356Z,8.60
2022-10-24T01:56:13.943Z,9.17
2022-10-24T01:58:42.708Z,6.37
2022-10-24T02:01:19.689Z,8.83
2022-10-24T02:03:54.358Z,8.13
2022-10-24T02:06:31.390Z,6.33
2022-10-24T02:09:08.241Z,8.73
2022-10-24T02:11:38.396Z,9.17
2022-10-24T02:14:15.263Z,8.13
2022-10-24T02:16:46.687Z,8.13
2022-10-24T02:19:16.851Z,11.67
2022-10-24T02:21:54.225Z,6.10
2022-10-24T02:24:30.515Z,11.33
2022-10-24T02:27:06.010Z,9.13
2022-10-24T02:29:44.075Z,7.70
2022-10-24T02:32:21.165Z,9.73
2022-10-24T02:34:51.028Z,10.10
2022-10-24T02:37:21.392Z,10.60
2022-10-24T02:39:52.502Z,9.53
2022-10-24T02:42:24.055Z,9.37
2022-10-24T02:44:53.795Z,8.77
2022-10-24T02:47:27.974Z,8.47
2022-10-24T02:49:57.303Z,10.17
2022-10-24T02:52:26.646Z,8.60
2022-10-24T02:54:55.282Z,10.17
2022-10-24T02:57:26.712Z,8.83
2022-10-24T02:59:55.355Z,11.67
2022-10-24T03:02:25.794Z,8.93
2022-10-24T03:04:54.679Z,10.57
2022-10-24T03:07:23.331Z,11.60
2022-10-24T03:09:51.978Z,10.63
2022-10-24T03:12:20.923Z,7.60
2022-10-24T03:14:49.834Z,10.50
2022-10-24T03:17:18.570Z,8.17
2022-10-24T03:19:48.634Z,5.10
2022-10-24T03:22:17.196Z,9.57
2022-10-24T03:24:55.255Z,5.00
2022-10-24T03:27:24.685Z,7.97
2022-10-24T03:29:53.270Z,8.53
2022-10-24T03:32:22.104Z,8.43
2022-10-24T03:34:52.161Z,8.87
2022-10-24T03:37:21.114Z,7.90
2022-10-24T03:39:51.167Z,10.97
2022-10-24T03:42:19.841Z,6.73
2022-10-24T03:44:48.632Z,10.27
2022-10-24T03:47:17.435Z,9.83
2022-10-24T03:49:46.112Z,7.23
2022-10-24T03:52:16.178Z,5.77
2022-10-24T03:54:45.112Z,8.97
2022-10-24T03:57:13.911Z,8.83
2022-10-24T03:59:42.624Z,3.43
2022-10-24T04:02:11.844Z,8.20
2022-10-24T04:04:40.484Z,10.57
2022-10-24T04:07:09.292Z,10.20
2022-10-24T04:09:39.642Z,10.07
2022-10-24T04:12:08.498Z,9.27
2022-10-24T04:14:37.123Z,5.00
2022-10-24T04:17:05.928Z,5.47
2022-10-24T04:19:35.041Z,12.90
2022-10-24T04:22:03.691Z,8.50
2022-10-24T04:24:32.716Z,7.93
2022-10-24T04:27:02.804Z,13.97
2022-10-24T04:29:31.723Z,8.37
2022-10-24T04:32:00.525Z,11.30
2022-10-24T04:34:29.201Z,8.00
2022-10-24T04:36:57.884Z,6.33
2022-10-24T04:39:26.505Z,9.37
2022-10-24T04:41:55.108Z,14.53
2022-10-24T04:44:25.180Z,6.60
2022-10-24T04:46:53.897Z,9.80
2022-10-24T04:49:22.467Z,10.17
2022-10-24T04:51:51.098Z,10.47
2022-10-24T04:54:19.813Z,6.47
2022-10-24T04:56:48.662Z,7.63
2022-10-24T04:59:17.420Z,9.83
2022-10-24T05:01:47.559Z,5.73
2022-10-24T05:04:16.377Z,10.73
2022-10-24T05:06:45.296Z,6.43
2022-10-24T05:09:14.211Z,10.07
2022-10-24T05:11:43.151Z,11.03
2022-10-24T05:14:11.991Z,7.27
2022-10-24T05:16:40.825Z,7.93
2022-10-24T05:19:10.824Z,9.07
2022-10-24T05:21:39.418Z,9.90
2022-10-24T05:24:08.691Z,7.83
2022-10-24T05:26:37.387Z,6.80
2022-10-24T05:31:39.560Z,6.07
2022-10-24T05:34:08.427Z,13.47
2022-10-24T05:36:38.574Z,10.63
2022-10-24T05:39:07.855Z,13.60
2022-10-24T05:41:37.316Z,8.87
2022-10-24T05:44:06.442Z,10.97
2022-10-24T05:46:35.088Z,10.00
2022-10-24T05:49:03.719Z,8.67
2022-10-24T05:51:32.446Z,9.63
2022-10-24T05:54:02.807Z,14.23
2022-10-24T05:56:32.120Z,9.70
2022-10-24T05:59:00.815Z,12.70
2022-10-24T06:01:29.516Z,12.03
2022-10-24T06:03:58.503Z,10.07
2022-10-24T06:06:27.919Z,7.40
2022-10-24T06:08:56.562Z,8.47
2022-10-24T06:11:26.560Z,15.27
2022-10-24T06:14:47.596Z,14.93
2022-10-24T06:17:16.277Z,9.63
2022-10-24T06:19:45.309Z,9.83
2022-10-24T06:22:14.468Z,12.57
2022-10-24T06:24:43.259Z,11.63
2022-10-24T06:27:15.756Z,6.53
2022-10-24T06:29:45.788Z,7.80
2022-10-24T06:32:16.025Z,13.33
2022-10-24T06:34:46.560Z,16.07
2022-10-24T06:37:17.002Z,13.00
2022-10-24T06:39:46.045Z,11.90
2022-10-24T06:42:16.770Z,6.00
2022-10-24T06:44:45.521Z,14.60
2022-10-24T06:47:14.719Z,8.20
2022-10-24T06:49:47.206Z,9.00
2022-10-24T06:52:19.045Z,11.80
2022-10-24T06:55:18.402Z,7.43
2022-10-24T06:57:48.927Z,10.07
2022-10-24T07:00:18.877Z,9.80
2022-10-24T07:02:47.986Z,15.23
2022-10-24T07:05:17.190Z,14.30
2022-10-24T07:07:46.578Z,18.33
2022-10-24T07:10:17.173Z,14.83
2022-10-24T07:12:47.668Z,16.00
2022-10-24T07:15:16.718Z,14.67
2022-10-24T07:17:46.649Z,10.47
2022-10-24T07:20:16.601Z,19.53
2022-10-24T07:22:46.770Z,12.33
2022-10-24T07:25:17.004Z,15.90
2022-10-24T07:27:47.082Z,13.57
2022-10-24T07:30:20.286Z,15.03
2022-10-24T07:32:50.002Z,16.63
2022-10-24T07:35:18.717Z,12.70
2022-10-24T07:37:47.712Z,14.27
2022-10-24T07:40:17.859Z,12.40
2022-10-24T07:42:49.571Z,11.03
2022-10-24T07:45:18.925Z,13.67
2022-10-24T07:47:48.752Z,8.53
2022-10-24T07:50:18.141Z,13.93
2022-10-24T07:52:47.424Z,18.23
2022-10-24T07:55:16.604Z,13.23
2022-10-24T07:57:46.153Z,16.77
2022-10-24T08:00:20.723Z,12.40
2022-10-24T08:05:23.263Z,12.83
2022-10-24T08:07:56.254Z,15.03
2022-10-24T08:10:34.353Z,17.07
2022-10-24T08:13:03.205Z,16.07
2022-10-24T08:15:33.312Z,13.73
2022-10-24T08:18:02.235Z,15.20
2022-10-24T08:20:31.236Z,15.63
2022-10-24T08:23:00.139Z,12.90
2022-10-24T08:25:28.892Z,21.83
2022-10-24T08:27:57.692Z,11.17
2022-10-24T08:30:26.531Z,17.47
2022-10-24T08:32:56.484Z,16.50
2022-10-24T08:35:25.889Z,17.87
2022-10-24T08:37:54.545Z,9.90
2022-10-24T08:40:23.149Z,20.17
2022-10-24T08:42:52.505Z,12.97
2022-10-24T08:45:30.211Z,15.63
2022-10-24T08:48:08.189Z,13.77
2022-10-24T08:50:38.320Z,15.30
2022-10-24T08:53:14.526Z,13.47
2022-10-24T08:55:50.617Z,13.57
2022-10-24T08:58:26.958Z,15.47
2022-10-24T09:00:59.375Z,13.37
2022-10-24T09:03:54.887Z,18.73
2022-10-24T09:06:30.078Z,20.37
2022-10-24T09:09:03.122Z,16.33
2022-10-24T09:11:47.657Z,13.30
2022-10-24T09:14:19.965Z,14.63
2022-10-24T09:16:57.802Z,13.20
2022-10-24T09:19:31.131Z,13.43
2022-10-24T09:22:02.586Z,14.20
2022-10-24T09:24:42.734Z,17.60
2022-10-24T09:27:19.064Z,18.77
2022-10-24T09:29:47.953Z,16.33
2022-10-24T09:32:21.524Z,21.43
2022-10-24T09:34:52.402Z,15.90
2022-10-24T09:37:44.322Z,14.03
2022-10-24T09:40:21.959Z,16.13
2022-10-24T09:42:59.825Z,20.10
2022-10-24T09:45:39.124Z,15.90
2022-10-24T09:48:24.571Z,17.20
2022-10-24T09:50:58.248Z,15.80
2022-10-24T09:53:31.132Z,14.37
2022-10-24T09:56:07.653Z,15.30
2022-10-24T09:58:36.520Z,15.10
2022-10-24T10:01:08.985Z,17.50
2022-10-24T10:03:37.744Z,13.07
2022-10-24T10:06:19.030Z,13.73
2022-10-24T10:08:54.619Z,10.57
2022-10-24T10:11:31.608Z,20.77
2022-10-24T10:14:04.001Z,18.40
2022-10-24T10:16:37.722Z,15.07
2022-10-24T10:19:19.416Z,15.73
2022-10-24T10:22:00.293Z,16.40
2022-10-24T10:24:39.956Z,11.90
2022-10-24T10:27:43.420Z,11.53
2022-10-24T10:30:23.082Z,12.77
2022-10-24T10:33:12.767Z,13.17
2022-10-24T10:35:52.118Z,12.67
2022-10-24T10:38:44.228Z,14.87
2022-10-24T10:41:30.149Z,13.20
2022-10-24T10:44:21.089Z,15.63
2022-10-24T10:47:03.050Z,16.23
2022-10-24T10:49:37.680Z,13.50
2022-10-24T10:52:13.542Z,13.47
2022-10-24T10:55:16.475Z,11.77
2022-10-24T10:57:55.335Z,13.53
2022-10-24T11:00:36.430Z,12.57
2022-10-24T11:03:30.753Z,10.27
2022-10-24T11:06:19.675Z,10.33
2022-10-24T11:09:29.927Z,13.57
2022-10-24T11:12:12.092Z,9.07
2022-10-24T11:14:46.795Z,8.93
2022-10-24T11:17:24.762Z,8.87
2022-10-24T11:20:08.958Z,13.23
2022-10-24T11:22:46.908Z,5.83
2022-10-24T11:25:27.307Z,8.00
2022-10-24T11:28:08.916Z,7.40
2022-10-24T11:30:52.073Z,8.53
2022-10-24T11:33:27.193Z,8.30
2022-10-24T11:36:12.466Z,7.13
2022-10-24T11:38:51.177Z,10.73
2022-10-24T11:41:41.333Z,7.00
2022-10-24T11:44:41.040Z,7.67
2022-10-24T11:47:41.110Z,8.83
2022-10-24T11:50:25.863Z,8.77
2022-10-24T11:53:01.574Z,6.20
2022-10-24T11:55:39.210Z,13.10
2022-10-24T11:58:16.795Z,5.83
2022-10-24T12:01:25.314Z,9.53
2022-10-24T12:05:02.019Z,4.67
2022-10-24T12:08:35.107Z,8.93
2022-10-24T12:11:21.523Z,4.83
2022-10-24T12:14:22.928Z,9.73
2022-10-24T12:17:36.736Z,6.23
2022-10-24T12:20:12.892Z,7.27
2022-10-24T12:22:45.587Z,7.20
2022-10-24T12:25:29.917Z,5.30
2022-10-24T12:28:02.596Z,8.17
2022-10-24T12:30:34.920Z,4.97
2022-10-24T12:33:25.928Z,2.20
2022-10-24T12:35:57.370Z,6.73
2022-10-24T12:39:09.613Z,6.57
2022-10-24T12:41:45.660Z,0.80
2022-10-24T12:44:42.491Z,2.17
2022-10-24T12:47:35.741Z,3.33
2022-10-24T12:51:01.603Z,5.13
2022-10-24T12:54:02.297Z,5.13
2022-10-24T12:56:32.474Z,7.43
2022-10-24T12:59:05.678Z,6.20
2022-10-24T13:01:37.884Z,4.50
2022-10-24T13:04:56.727Z,8.13
2022-10-24T13:07:50.904Z,8.70
2022-10-24T13:10:45.957Z,6.47
2022-10-24T13:13:39.090Z,8.07
2022-10-24T13:16:26.371Z,4.17
2022-10-24T13:19:17.130Z,2.37
2022-10-24T13:21:50.614Z,8.00
2022-10-24T13:24:35.307Z,9.97
2022-10-24T13:27:29.575Z,6.70
2022-10-24T13:30:33.916Z,6.60
2022-10-24T13:33:42.923Z,6.57
2022-10-24T13:36:20.510Z,4.07
2022-10-24T13:38:56.216Z,4.63
2022-10-24T13:41:35.761Z,7.63
2022-10-24T13:44:15.751Z,2.43
2022-10-24T13:46:54.497Z,9.07
2022-10-24T13:49:32.698Z,3.03
2022-10-24T13:52:10.424Z,4.83
2022-10-24T13:54:40.548Z,5.83
2022-10-24T13:57:29.726Z,2.67
2022-10-24T14:00:02.304Z,8.17
2022-10-24T14:02:43.946Z,4.10
2022-10-24T14:05:32.768Z,7.23
2022-10-24T14:08:04.458Z,6.10
2022-10-24T14:10:34.422Z,4.47
2022-10-24T14:13:05.418Z,1.97
2022-10-24T14:15:36.462Z,6.93
2022-10-24T14:18:15.034Z,5.23
2022-10-24T14:20:45.864Z,2.83
2022-10-24T14:23:29.902Z,4.73
2022-10-24T14:26:03.910Z,9.07
2022-10-24T14:28:40.453Z,2.80
2022-10-24T14:31:24.192Z,3.27
2022-10-24T14:33:57.788Z,4.83
2022-10-24T14:36:33.194Z,6.07
2022-10-24T14:39:07.008Z,5.10
2022-10-24T14:41:42.315Z,8.00
2022-10-24T14:44:18.424Z,8.10
2022-10-24T14:46:49.025Z,3.97
2022-10-24T14:49:33.932Z,4.10
2022-10-24T14:52:13.366Z,5.70
2022-10-24T14:54:52.077Z,5.83
2022-10-24T14:57:24.054Z,7.63
2022-10-24T14:59:57.478Z,7.57
2022-10-24T15:02:31.296Z,3.73
2022-10-24T15:05:30.223Z,5.03
2022-10-24T15:08:22.549Z,3.63
2022-10-24T15:11:05.838Z,6.17
2022-10-24T15:13:48.090Z,7.30
2022-10-24T15:16:35.406Z,3.57
2022-10-24T15:19:07.145Z,2.73
2022-10-24T15:21:41.403Z,2.17
2022-10-24T15:24:23.509Z,7.43
2022-10-24T15:26:52.879Z,6.43
2022-10-24T15:29:24.602Z,4.53
2022-10-24T15:31:54.774Z,4.87
2022-10-24T15:34:27.264Z,3.23
2022-10-24T15:36:57.849Z,4.83
2022-10-24T15:39:27.157Z,5.27
2022-10-24T15:41:56.993Z,3.80
2022-10-24T15:44:29.507Z,8.10
2022-10-24T15:46:59.795Z,7.07
2022-10-24T15:49:29.322Z,4.53
2022-10-24T15:51:59.741Z,2.93
2022-10-24T15:54:29.450Z,3.10
2022-10-24T15:57:01.521Z,4.07
2022-10-24T15:59:33.630Z,3.70
2022-10-24T16:02:04.549Z,8.37
2022-10-24T16:04:35.098Z,8.03
2022-10-24T16:07:04.062Z,5.20
2022-10-24T16:09:32.828Z,10.43
2022-10-24T16:12:01.552Z,3.10
2022-10-24T16:14:31.001Z,5.47
2022-10-24T16:17:00.410Z,6.73
2022-10-24T16:19:30.480Z,4.73
2022-10-24T16:22:01.102Z,6.20
2022-10-24T16:24:30.765Z,4.13
2022-10-24T16:26:59.523Z,10.77
2022-10-24T16:29:28.586Z,9.10
2022-10-24T16:31:57.342Z,9.17
2022-10-24T16:34:26.120Z,6.93
2022-10-24T16:36:56.770Z,7.07
2022-10-24T16:39:25.572Z,9.27
2022-10-24T16:41:56.054Z,9.27
2022-10-24T16:44:24.768Z,6.50
2022-10-24T16:46:55.049Z,16.10
2022-10-24T16:49:24.362Z,15.70
2022-10-24T16:51:53.157Z,8.53
2022-10-24T16:54:23.427Z,8.17
2022-10-24T16:56:54.157Z,12.53
2022-10-24T16:59:23.203Z,7.23
2022-10-24T17:01:52.210Z,8.80
2022-10-24T17:04:21.089Z,8.17
2022-10-24T17:06:49.789Z,10.27
2022-10-24T17:09:18.837Z,12.00
2022-10-24T17:11:49.764Z,11.83
2022-10-24T17:14:23.771Z,7.43
2022-10-24T17:16:53.037Z,7.00
2022-10-24T17:19:22.979Z,8.93
2022-10-24T17:21:57.297Z,10.53
2022-10-24T17:24:28.045Z,10.87
2022-10-24T17:26:59.345Z,10.97
2022-10-24T17:29:31.953Z,12.63
2022-10-24T17:32:03.263Z,10.27
2022-10-24T17:34:33.671Z,9.80
2022-10-24T17:37:20.016Z,10.93
2022-10-24T17:39:53.567Z,10.17
2022-10-24T17:42:35.850Z,8.47
2022-10-24T17:45:07.941Z,13.00
2022-10-24T17:47:38.432Z,7.47
2022-10-24T17:50:11.016Z,18.10
2022-10-24T17:52:42.275Z,14.57
2022-10-24T17:55:40.993Z,12.43
2022-10-24T17:58:13.652Z,10.43
2022-10-24T18:00:46.370Z,10.50
2022-10-24T18:03:16.445Z,9.83
2022-10-24T18:05:45.463Z,5.67
2022-10-24T18:08:17.753Z,16.43
2022-10-24T18:10:46.964Z,8.97
2022-10-24T18:13:19.503Z,10.00
2022-10-24T18:15:48.733Z,13.23
2022-10-24T18:18:18.719Z,10.03
2022-10-24T18:20:48.200Z,10.83
2022-10-24T18:23:17.720Z,13.83
2022-10-24T18:25:47.042Z,17.70
2022-10-24T18:28:17.969Z,13.47
2022-10-24T18:30:51.967Z,11.37
2022-10-24T18:33:23.853Z,13.97
2022-10-24T18:35:54.848Z,15.30
2022-10-24T18:38:24.994Z,14.13
2022-10-24T18:40:54.708Z,13.37
2022-10-24T18:43:47.455Z,18.57
2022-10-24T18:46:19.238Z,14.50
2022-10-24T18:48:49.134Z,16.40
2022-10-24T18:51:32.126Z,14.77
2022-10-24T18:54:07.406Z,11.47
2022-10-24T18:56:40.006Z,18.93
2022-10-24T18:59:16.010Z,11.57
2022-10-24T19:01:56.857Z,14.13
2022-10-24T19:04:27.707Z,15.47
2022-10-24T19:07:04.072Z,18.30
2022-10-24T19:09:33.095Z,11.37
2022-10-24T19:12:03.478Z,13.07
2022-10-24T19:14:34.361Z,15.97
2022-10-24T19:17:04.414Z,11.63
2022-10-24T19:20:00.619Z,10.50
2022-10-24T19:22:31.742Z,11.53
2022-10-24T19:25:00.631Z,16.63
2022-10-24T19:27:39.119Z,10.47
2022-10-24T19:30:12.133Z,7.90
2022-10-24T19:32:41.085Z,13.13
2022-10-24T19:35:10.152Z,10.50
2022-10-24T19:37:38.828Z,11.53
2022-10-24T19:40:09.789Z,13.90
2022-10-24T19:42:38.876Z,12.53
2022-10-24T19:45:10.147Z,11.07
2022-10-24T19:47:41.166Z,13.10
2022-10-24T19:50:12.718Z,11.47
2022-10-24T19:52:41.793Z,8.03
2022-10-24T19:55:10.865Z,11.87
2022-10-24T19:57:39.695Z,8.83
2022-10-24T20:00:12.128Z,13.87
2022-10-24T20:02:41.956Z,11.03
2022-10-24T20:05:11.169Z,11.97
2022-10-24T20:07:40.162Z,7.07
2022-10-24T20:10:09.851Z,13.47
2022-10-24T20:12:40.990Z,8.83
2022-10-24T20:15:13.797Z,13.10
2022-10-24T20:17:42.784Z,10.27
2022-10-24T20:20:13.699Z,8.00
2022-10-24T20:22:43.150Z,8.37
2022-10-24T20:25:11.974Z,8.90
2022-10-24T20:27:42.056Z,17.17
2022-10-24T20:30:14.154Z,11.20
2022-10-24T20:32:43.240Z,9.77
2022-10-24T20:35:12.156Z,11.70
2022-10-24T20:37:41.195Z,12.17
2022-10-24T20:40:13.073Z,8.63
2022-10-24T20:42:42.881Z,9.57
2022-10-24T20:45:13.401Z,14.40
2022-10-24T20:47:42.619Z,11.10
2022-10-24T20:50:12.344Z,13.10
2022-10-24T20:52:41.293Z,10.07
2022-10-24T20:55:19.753Z,14.30
2022-10-24T20:57:59.445Z,12.53
2022-10-24T21:00:29.939Z,12.70
2022-10-24T21:02:59.110Z,19.27
2022-10-24T21:05:29.243Z,15.37
2022-10-24T21:07:58.079Z,14.40
2022-10-24T21:10:28.173Z,17.10
2022-10-24T21:12:57.109Z,13.73
2022-10-24T21:15:26.112Z,22.47
2022-10-24T21:17:56.631Z,15.67
2022-10-24T21:20:25.665Z,15.17
2022-10-24T21:22:58.713Z,17.53
2022-10-24T21:25:27.725Z,14.17
2022-10-24T21:27:57.257Z,11.87
2022-10-24T21:30:26.598Z,14.57
2022-10-24T21:32:56.855Z,10.37
2022-10-24T21:35:26.298Z,9.23
2022-10-24T21:37:56.101Z,15.90
2022-10-24T21:40:24.974Z,8.57
2022-10-24T21:42:54.356Z,9.07
2022-10-24T21:45:23.072Z,11.60
2022-10-24T21:47:51.765Z,14.13
2022-10-24T21:50:22.624Z,11.50
2022-10-24T21:52:51.474Z,12.80
2022-10-24T21:55:20.157Z,10.73
2022-10-24T21:57:49.451Z,11.67
2022-10-24T22:00:18.457Z,10.67
2022-10-24T22:02:47.853Z,12.40
2022-10-24T22:05:17.417Z,8.90
2022-10-24T22:07:49.704Z,7.20
2022-10-24T22:10:18.695Z,10.50
2022-10-24T22:12:47.355Z,7.63
2022-10-24T22:15:16.124Z,9.53
2022-10-24T22:17:44.964Z,10.97
2022-10-24T22:20:13.889Z,12.47
2022-10-24T22:22:42.653Z,9.37
2022-10-24T22:25:12.997Z,9.17
2022-10-24T22:27:43.325Z,11.53
2022-10-24T22:30:13.390Z,7.63
2022-10-24T22:32:42.600Z,9.47
2022-10-24T22:35:13.127Z,6.53
2022-10-24T22:37:42.501Z,8.67
2022-10-24T22:40:24.895Z,8.97
2022-10-24T22:42:54.579Z,11.30
2022-10-24T22:45:25.188Z,6.73
2022-10-24T22:48:21.353Z,6.63
2022-10-24T22:50:53.444Z,8.97
2022-10-24T22:53:25.249Z,7.50
2022-10-24T22:56:12.964Z,12.97
2022-10-24T22:58:43.995Z,14.70
2022-10-24T23:01:28.888Z,12.47
2022-10-24T23:04:25.033Z,12.87
2022-10-24T23:06:59.432Z,17.13
2022-10-24T23:09:28.168Z,8.73
2022-10-24T23:11:59.303Z,8.70
2022-10-24T23:14:28.914Z,11.97
2022-10-24T23:17:00.992Z,8.40
2022-10-24T23:19:32.878Z,8.37
2022-10-24T23:23:09.443Z,9.67
2022-10-24T23:25:57.126Z,8.23
2022-10-24T23:28:41.319Z,6.50
2022-10-24T23:31:11.070Z,8.83
2022-10-24T23:33:40.582Z,8.83
2022-10-24T23:36:23.920Z,6.57
2022-10-24T23:38:56.026Z,8.40
2022-10-24T23:41:25.515Z,10.30
2022-10-24T23:43:56.797Z,10.43
2022-10-24T23:46:34.260Z,5.97
2022-10-24T23:49:26.077Z,10.43
2022-10-24T23:52:05.327Z,9.83
2022-10-24T23:54:35.240Z,7.03
2022-10-24T23:57:14.708Z,13.17
2022-10-24T23:59:45.198Z,7.67
